Time;durP1;ratioP1;P1;durP2;ratioP2;P2;SDS_P1;SDS_P2;PMS_P1;PMS_P2;Temp;Humidity;BMP_temperature;BMP_pressure;BME280_temperature;BME280_humidity;BME280_pressure;Samples;Min_cycle;Max_cycle;Signal;HPM_P1;HPM_P2
2024/01/13 00:01:22;;;;;;;15.48;9.45;;;;;;;;;;5073231;28;20378;-84
2024/01/13 00:03:47;;;;;;;17.73;9.63;;;;;;;;;;5055222;28;20034;-85
2024/01/13 00:06:13;;;;;;;17.35;9.85;;;;;;;;;;5053525;28;20036;-84
2024/01/13 00:08:40;;;;;;;16.75;9.40;;;;;;;;;;5063886;28;20391;-85
2024/01/13 00:11:05;;;;;;;16.08;9.75;;;;;;;;;;5071388;28;20106;-84
2024/01/13 00:13:31;;;;;;;17.00;9.65;;;;;;;;;;5054432;28;20459;-84
2024/01/13 00:15:56;;;;;;;15.73;9.60;;;;;;;;;;5054864;28;20031;-84
2024/01/13 00:18:22;;;;;;;17.73;9.43;;;;;;;;;;5066771;28;20024;-84
2024/01/13 00:20:48;;;;;;;18.05;9.75;;;;;;;;;;5065427;28;20032;-85
2024/01/13 00:23:14;;;;;;;17.13;9.20;;;;;;;;;;5068930;28;20050;-86
2024/01/13 00:25:39;;;;;;;16.83;8.95;;;;;;;;;;5051165;28;20021;-85
2024/01/13 00:28:05;;;;;;;17.20;9.02;;;;;;;;;;5066623;28;20079;-85
2024/01/13 00:30:30;;;;;;;14.15;8.60;;;;;;;;;;5066636;28;20470;-85
2024/01/13 00:32:56;;;;;;;15.27;8.30;;;;;;;;;;5065683;28;20024;-85
2024/01/13 00:35:21;;;;;;;14.57;8.25;;;;;;;;;;5067200;28;20123;-85
2024/01/13 00:37:46;;;;;;;15.43;8.77;;;;;;;;;;5048817;28;20103;-86
2024/01/13 00:40:15;;;;;;;12.98;7.97;;;;;;;;;;5051780;28;20027;-85
2024/01/13 00:42:42;;;;;;;14.07;8.35;;;;;;;;;;5065961;28;20024;-85
2024/01/13 00:45:07;;;;;;;15.48;9.10;;;;;;;;;;5061588;28;20058;-85
2024/01/13 00:47:33;;;;;;;13.88;7.88;;;;;;;;;;5047007;28;20017;-85
2024/01/13 00:49:58;;;;;;;14.05;8.23;;;;;;;;;;5069239;28;20401;-85
2024/01/13 00:52:24;;;;;;;12.20;7.40;;;;;;;;;;5067865;28;20073;-86
2024/01/13 00:54:49;;;;;;;13.45;7.20;;;;;;;;;;5071502;28;20028;-85
2024/01/13 00:57:14;;;;;;;13.85;7.07;;;;;;;;;;5068436;28;20535;-85
2024/01/13 00:59:40;;;;;;;13.75;7.80;;;;;;;;;;5066536;28;20391;-85
2024/01/13 01:02:05;;;;;;;12.95;7.65;;;;;;;;;;5069184;28;20039;-85
2024/01/13 01:04:32;;;;;;;13.80;8.50;;;;;;;;;;5038081;28;20384;-85
2024/01/13 01:06:57;;;;;;;15.25;9.18;;;;;;;;;;5064388;28;20020;-85
2024/01/13 01:09:23;;;;;;;12.55;7.68;;;;;;;;;;5070697;28;20028;-85
2024/01/13 01:11:49;;;;;;;13.73;7.95;;;;;;;;;;5073145;28;20420;-85
2024/01/13 01:14:14;;;;;;;13.15;8.43;;;;;;;;;;5052512;28;20394;-85
2024/01/13 01:16:40;;;;;;;13.65;8.70;;;;;;;;;;5070280;28;20025;-85
2024/01/13 01:19:07;;;;;;;15.02;8.73;;;;;;;;;;5072137;28;20024;-85
2024/01/13 01:21:32;;;;;;;15.45;9.23;;;;;;;;;;5053285;28;20024;-84
2024/01/13 01:23:57;;;;;;;13.15;7.47;;;;;;;;;;5071672;28;20452;-85
2024/01/13 01:26:23;;;;;;;12.73;7.88;;;;;;;;;;5070638;28;20394;-85
2024/01/13 01:28:50;;;;;;;12.90;7.65;;;;;;;;;;5072408;28;20027;-85
2024/01/13 01:31:15;;;;;;;14.23;7.75;;;;;;;;;;5072426;28;20035;-86
2024/01/13 01:33:41;;;;;;;12.15;7.90;;;;;;;;;;5060802;28;20025;-86
2024/01/13 01:36:07;;;;;;;13.02;7.38;;;;;;;;;;5068996;28;20119;-86
2024/01/13 01:38:32;;;;;;;11.88;6.93;;;;;;;;;;5069855;28;20025;-85
2024/01/13 01:40:58;;;;;;;11.25;7.05;;;;;;;;;;5070625;28;20398;-85
2024/01/13 01:43:23;;;;;;;9.32;6.30;;;;;;;;;;5058148;28;20475;-85
2024/01/13 01:45:54;;;;;;;10.52;6.32;;;;;;;;;;5069403;28;20040;-85
2024/01/13 01:48:32;;;;;;;11.20;6.97;;;;;;;;;;5069286;28;20021;-85
2024/01/13 01:50:59;;;;;;;10.80;6.13;;;;;;;;;;5052888;28;20043;-86
2024/01/13 01:53:25;;;;;;;10.60;6.35;;;;;;;;;;5064727;28;20505;-85
2024/01/13 01:55:51;;;;;;;10.88;6.60;;;;;;;;;;5053150;28;20133;-86
2024/01/13 01:58:18;;;;;;;9.75;6.88;;;;;;;;;;5069496;28;20432;-85
2024/01/13 02:00:45;;;;;;;11.43;6.68;;;;;;;;;;5063236;28;20043;-85
2024/01/13 06:12:06;;;;;;;9.88;6.00;;;;;;;;;;1135203;22;20295;31
2024/01/13 06:14:34;;;;;;;10.88;5.32;;;;;;;;;;4965656;28;20070;-90
2024/01/13 06:16:59;;;;;;;11.30;6.22;;;;;;;;;;4952185;28;20075;-90
2024/01/13 06:19:25;;;;;;;10.13;5.68;;;;;;;;;;4952536;28;20023;-91
2024/01/13 06:21:50;;;;;;;9.52;5.70;;;;;;;;;;4952023;28;20123;-91
2024/01/13 06:24:15;;;;;;;9.27;5.50;;;;;;;;;;4951063;28;20050;-90
2024/01/13 06:26:41;;;;;;;10.88;5.95;;;;;;;;;;4951031;28;20035;-90
2024/01/13 06:29:07;;;;;;;8.77;5.53;;;;;;;;;;4967648;28;20023;-89
2024/01/13 06:31:33;;;;;;;8.80;5.45;;;;;;;;;;4949990;28;20122;-90
2024/01/13 06:33:59;;;;;;;9.85;5.55;;;;;;;;;;4950119;28;20122;-89
2024/01/13 06:36:24;;;;;;;9.77;5.43;;;;;;;;;;4951495;28;20126;-90
2024/01/13 06:38:50;;;;;;;11.32;5.95;;;;;;;;;;4968296;28;20031;-88
2024/01/13 06:41:16;;;;;;;12.70;6.45;;;;;;;;;;4969250;28;20053;-88
2024/01/13 06:43:41;;;;;;;10.73;5.88;;;;;;;;;;4972888;28;20046;-88
2024/01/13 06:46:08;;;;;;;13.20;7.00;;;;;;;;;;4969508;28;20033;-88
2024/01/13 06:48:33;;;;;;;13.68;6.70;;;;;;;;;;4987560;28;20118;-88
2024/01/13 06:50:59;;;;;;;13.27;7.28;;;;;;;;;;4972673;28;20114;-88
2024/01/13 06:53:26;;;;;;;12.73;7.28;;;;;;;;;;4969058;28;20121;-89
2024/01/13 06:55:51;;;;;;;12.02;7.38;;;;;;;;;;4969423;28;20031;-88
2024/01/13 06:58:17;;;;;;;13.60;7.82;;;;;;;;;;4968610;28;20034;-88
2024/01/13 07:00:42;;;;;;;12.48;7.40;;;;;;;;;;4969725;28;20027;-88
2024/01/13 07:03:08;;;;;;;13.15;7.85;;;;;;;;;;4968498;28;20591;-88
2024/01/13 07:05:33;;;;;;;16.52;9.00;;;;;;;;;;4968773;28;20030;-88
2024/01/13 07:08:00;;;;;;;14.98;8.55;;;;;;;;;;4966318;28;20105;-88
2024/01/13 07:10:29;;;;;;;14.73;8.73;;;;;;;;;;4985873;28;20031;-88
2024/01/13 07:12:55;;;;;;;17.35;9.70;;;;;;;;;;4983616;28;20058;-88
2024/01/13 07:15:20;;;;;;;16.73;9.60;;;;;;;;;;4969340;28;20046;-88
2024/01/13 07:17:46;;;;;;;16.38;9.60;;;;;;;;;;4966449;28;20031;-87
2024/01/13 07:20:11;;;;;;;15.85;8.65;;;;;;;;;;4968148;28;20077;-88
2024/01/13 07:22:37;;;;;;;15.38;9.65;;;;;;;;;;4968373;28;20133;-89
2024/01/13 07:25:03;;;;;;;17.27;9.80;;;;;;;;;;4967639;28;20483;-88
2024/01/13 07:27:29;;;;;;;17.88;10.07;;;;;;;;;;4965940;28;20409;-88
2024/01/13 07:29:55;;;;;;;17.95;10.35;;;;;;;;;;4986975;28;20030;-87
2024/01/13 07:32:20;;;;;;;16.25;9.40;;;;;;;;;;4972983;28;20093;-87
2024/01/13 07:34:46;;;;;;;16.95;9.75;;;;;;;;;;4971868;28;20065;-88
2024/01/13 07:37:11;;;;;;;18.33;10.90;;;;;;;;;;4986005;28;20022;-88
2024/01/13 07:39:37;;;;;;;19.25;11.00;;;;;;;;;;4971670;28;20058;-88
2024/01/13 07:42:03;;;;;;;17.00;10.75;;;;;;;;;;4986989;28;20438;-88
2024/01/13 07:44:28;;;;;;;15.15;9.63;;;;;;;;;;4970653;28;20031;-88
2024/01/13 07:47:01;;;;;;;16.92;9.85;;;;;;;;;;4972475;28;20049;-88
2024/01/13 07:49:29;;;;;;;16.48;9.98;;;;;;;;;;4970607;28;20019;-89
2024/01/13 07:51:55;;;;;;;17.45;10.18;;;;;;;;;;4966620;28;20034;-88
2024/01/13 07:54:20;;;;;;;16.52;9.55;;;;;;;;;;4986712;28;20026;-88
2024/01/13 07:56:47;;;;;;;16.27;9.73;;;;;;;;;;4986219;28;20038;-88
2024/01/13 07:59:13;;;;;;;15.02;9.15;;;;;;;;;;4972362;28;20029;-88
2024/01/13 08:01:39;;;;;;;15.95;9.52;;;;;;;;;;4970550;28;20035;-88
2024/01/13 08:04:05;;;;;;;15.98;9.05;;;;;;;;;;4965327;28;20066;-89
2024/01/13 08:06:33;;;;;;;14.55;9.52;;;;;;;;;;4968996;28;20046;-88
2024/01/13 08:08:59;;;;;;;15.85;9.35;;;;;;;;;;4965149;28;20047;-88
2024/01/13 08:11:24;;;;;;;14.15;8.70;;;;;;;;;;4966036;28;20777;-88
2024/01/13 08:13:49;;;;;;;13.75;8.45;;;;;;;;;;4963762;28;20026;-88
2024/01/13 08:16:15;;;;;;;14.23;8.88;;;;;;;;;;4967510;28;20022;-89
2024/01/13 08:18:41;;;;;;;14.27;8.73;;;;;;;;;;4966254;28;20105;-87
2024/01/13 08:21:07;;;;;;;13.70;8.55;;;;;;;;;;4979885;28;20077;-89
2024/01/13 08:23:33;;;;;;;15.27;8.88;;;;;;;;;;4967751;28;20053;-88
2024/01/13 08:25:59;;;;;;;13.32;8.65;;;;;;;;;;4980123;28;20809;-87
2024/01/13 08:28:25;;;;;;;14.85;8.95;;;;;;;;;;4970284;28;20033;-86
2024/01/13 08:30:50;;;;;;;13.82;8.70;;;;;;;;;;4965670;28;20027;-88
2024/01/13 08:33:16;;;;;;;15.45;9.20;;;;;;;;;;4969652;28;20030;-88
2024/01/13 08:35:41;;;;;;;15.10;9.00;;;;;;;;;;4969734;28;20493;-89
2024/01/13 08:38:07;;;;;;;17.77;9.95;;;;;;;;;;4980521;28;20473;-90
2024/01/13 08:40:32;;;;;;;14.18;9.05;;;;;;;;;;4971585;28;20019;-91
2024/01/13 08:43:00;;;;;;;14.23;8.60;;;;;;;;;;4974131;28;20030;-90
2024/01/13 08:45:33;;;;;;;13.88;9.60;;;;;;;;;;4974815;28;20023;-90
2024/01/13 08:47:59;;;;;;;15.38;9.48;;;;;;;;;;4974982;28;20063;-90
2024/01/13 08:50:25;;;;;;;15.07;9.95;;;;;;;;;;4988794;28;20089;-90
2024/01/13 08:52:54;;;;;;;13.90;8.93;;;;;;;;;;4972058;28;20074;-90
2024/01/13 08:55:20;;;;;;;13.85;9.20;;;;;;;;;;4973891;28;20037;-91
2024/01/13 08:57:46;;;;;;;15.80;9.88;;;;;;;;;;4974744;28;20018;-90
2024/01/13 09:00:15;;;;;;;14.88;9.88;;;;;;;;;;4974001;28;20030;-89
2024/01/13 09:02:42;;;;;;;14.43;9.52;;;;;;;;;;4974665;28;20034;-90
2024/01/13 09:05:08;;;;;;;14.48;8.93;;;;;;;;;;4990566;28;20273;-90
2024/01/13 09:07:35;;;;;;;15.80;9.43;;;;;;;;;;4974627;28;20030;-90
2024/01/13 09:10:02;;;;;;;15.30;9.40;;;;;;;;;;4971705;28;20054;-90
2024/01/13 09:12:27;;;;;;;12.75;8.85;;;;;;;;;;4973848;28;20023;-90
2024/01/13 09:14:53;;;;;;;13.77;9.27;;;;;;;;;;4974615;28;20034;-90
2024/01/13 09:17:18;;;;;;;15.35;9.50;;;;;;;;;;4974850;28;20030;-89
2024/01/13 09:19:44;;;;;;;14.98;9.35;;;;;;;;;;4990936;28;20052;-90
2024/01/13 09:22:09;;;;;;;17.30;10.00;;;;;;;;;;4975971;28;20161;-90
2024/01/13 09:24:35;;;;;;;15.52;10.45;;;;;;;;;;4988687;28;20489;-90
2024/01/13 09:27:00;;;;;;;15.70;10.00;;;;;;;;;;4974078;28;20469;-90
2024/01/13 09:29:26;;;;;;;14.70;9.60;;;;;;;;;;4974376;28;20492;-89
2024/01/13 09:31:51;;;;;;;13.75;9.05;;;;;;;;;;4975345;28;20026;-90
2024/01/13 09:34:17;;;;;;;13.90;9.40;;;;;;;;;;4980577;28;20117;-91
2024/01/13 09:36:44;;;;;;;14.77;9.88;;;;;;;;;;4971751;28;20028;-91
2024/01/13 09:39:11;;;;;;;15.90;10.30;;;;;;;;;;4967358;28;20085;-90
2024/01/13 09:41:37;;;;;;;15.30;9.25;;;;;;;;;;4990157;28;20026;-89
2024/01/13 09:44:04;;;;;;;16.05;9.48;;;;;;;;;;4974309;28;20023;-91
2024/01/13 09:46:30;;;;;;;15.70;10.45;;;;;;;;;;4970574;28;20024;-90
2024/01/13 09:48:56;;;;;;;14.82;9.85;;;;;;;;;;4989400;28;20031;-90
2024/01/13 09:51:23;;;;;;;13.48;9.23;;;;;;;;;;4971941;28;20031;-90
2024/01/13 09:53:57;;;;;;;13.48;9.35;;;;;;;;;;4973333;28;20038;-90
2024/01/13 09:56:31;;;;;;;16.15;9.90;;;;;;;;;;4973186;28;20027;-89
2024/01/13 09:58:57;;;;;;;14.98;10.10;;;;;;;;;;4973840;28;20019;-90
2024/01/13 10:01:23;;;;;;;14.45;9.60;;;;;;;;;;4972801;28;20034;-89
2024/01/13 10:03:49;;;;;;;15.35;10.18;;;;;;;;;;4971551;28;20477;-90
2024/01/13 10:06:15;;;;;;;15.18;9.63;;;;;;;;;;4973659;28;20118;-90
2024/01/13 10:08:41;;;;;;;15.45;10.15;;;;;;;;;;4972888;28;20031;-89
2024/01/13 10:11:06;;;;;;;15.52;10.07;;;;;;;;;;4972622;28;20043;-88
2024/01/13 10:13:32;;;;;;;15.77;9.55;;;;;;;;;;4971760;28;20081;-88
2024/01/13 10:15:57;;;;;;;13.75;8.75;;;;;;;;;;4970951;28;20035;-88
2024/01/13 10:18:24;;;;;;;14.32;9.93;;;;;;;;;;4970423;28;20023;-88
2024/01/13 10:20:50;;;;;;;15.50;9.48;;;;;;;;;;4971396;28;20117;-88
2024/01/13 10:23:16;;;;;;;15.85;10.00;;;;;;;;;;4976801;28;20034;-87
2024/01/13 10:25:42;;;;;;;15.27;9.23;;;;;;;;;;4971192;28;20081;-86
2024/01/13 10:28:07;;;;;;;13.30;8.80;;;;;;;;;;4969796;28;20034;-87
2024/01/13 10:30:33;;;;;;;13.57;9.43;;;;;;;;;;4971494;28;20039;-88
2024/01/13 10:32:59;;;;;;;14.60;8.88;;;;;;;;;;4987052;28;20129;-88
2024/01/13 10:35:27;;;;;;;13.55;8.93;;;;;;;;;;4972745;28;20094;-88
2024/01/13 10:37:55;;;;;;;13.15;9.18;;;;;;;;;;4964209;28;20027;-87
2024/01/13 10:40:21;;;;;;;15.55;9.90;;;;;;;;;;4984861;28;20023;-87
2024/01/13 10:42:53;;;;;;;14.68;9.27;;;;;;;;;;4969237;28;20034;-87
2024/01/13 10:45:22;;;;;;;14.83;9.53;;;;;;;;;;4965306;28;20046;-87
2024/01/13 10:47:52;;;;;;;14.20;9.18;;;;;;;;;;4971056;28;20279;-88
2024/01/13 10:50:18;;;;;;;13.57;8.85;;;;;;;;;;4966323;28;20034;-85
2024/01/13 10:53:08;;;;;;;14.13;9.75;;;;;;;;;;4971795;28;20031;-87
2024/01/13 10:55:36;;;;;;;13.35;8.35;;;;;;;;;;4981918;28;20023;-87
2024/01/13 10:58:02;;;;;;;12.27;8.13;;;;;;;;;;4976141;28;20054;-88
2024/01/13 11:00:30;;;;;;;12.88;8.07;;;;;;;;;;4973738;28;20487;-87
2024/01/13 11:02:58;;;;;;;15.00;8.73;;;;;;;;;;4972953;28;20065;-87
2024/01/13 11:05:24;;;;;;;12.48;8.45;;;;;;;;;;4966051;28;20023;-87
2024/01/13 11:07:50;;;;;;;11.55;8.13;;;;;;;;;;4973058;28;20049;-87
2024/01/13 11:10:28;;;;;;;13.82;7.78;;;;;;;;;;4973848;28;20089;-87
2024/01/13 11:13:02;;;;;;;12.20;7.47;;;;;;;;;;4974157;28;20018;-87
2024/01/13 11:15:43;;;;;;;11.88;7.80;;;;;;;;;;4987702;28;20034;-87
2024/01/13 11:18:13;;;;;;;11.95;7.70;;;;;;;;;;4975239;28;20057;-91
2024/01/13 11:20:58;;;;;;;11.30;7.25;;;;;;;;;;4971958;28;20101;-89
2024/01/13 11:23:23;;;;;;;10.98;7.13;;;;;;;;;;4988442;28;20022;-90
2024/01/13 11:25:49;;;;;;;11.68;7.90;;;;;;;;;;4986469;28;20042;-90
2024/01/13 11:28:14;;;;;;;12.93;8.32;;;;;;;;;;4986384;28;20461;-89
2024/01/13 11:30:40;;;;;;;12.38;7.82;;;;;;;;;;4975122;28;20346;-89
2024/01/13 11:33:06;;;;;;;13.48;8.52;;;;;;;;;;4990217;28;20030;-90
2024/01/13 11:35:32;;;;;;;14.07;8.38;;;;;;;;;;4975020;28;20524;-90
2024/01/13 11:38:01;;;;;;;14.27;8.35;;;;;;;;;;4972405;28;20026;-89
2024/01/13 11:40:26;;;;;;;13.40;8.40;;;;;;;;;;4974337;28;20027;-89
2024/01/13 11:43:03;;;;;;;13.95;8.02;;;;;;;;;;4990671;28;20038;-89
2024/01/13 11:45:42;;;;;;;15.60;9.35;;;;;;;;;;4970744;28;20030;-89
2024/01/13 11:48:43;;;;;;;15.35;8.75;;;;;;;;;;4968317;28;20026;-89
2024/01/13 11:51:12;;;;;;;13.30;8.30;;;;;;;;;;4910946;29;20040;-90
2024/01/13 11:53:39;;;;;;;14.13;8.77;;;;;;;;;;4978800;28;20062;-89
2024/01/13 11:56:07;;;;;;;15.20;9.20;;;;;;;;;;4982917;28;20022;-89
2024/01/13 11:58:36;;;;;;;13.98;9.05;;;;;;;;;;4975147;28;20170;-89
2024/01/13 12:01:06;;;;;;;15.07;9.32;;;;;;;;;;4969564;28;20031;-89
2024/01/13 12:03:31;;;;;;;14.55;8.88;;;;;;;;;;4965215;28;20149;-89
2024/01/13 12:06:01;;;;;;;17.00;9.18;;;;;;;;;;4975395;28;20091;-89
2024/01/13 12:08:27;;;;;;;19.25;10.15;;;;;;;;;;4965458;28;20035;-89
2024/01/13 12:10:55;;;;;;;20.13;11.23;;;;;;;;;;4985221;28;20453;-89
2024/01/13 12:13:21;;;;;;;20.15;11.85;;;;;;;;;;4968565;28;20034;-90
2024/01/13 12:15:47;;;;;;;21.48;12.40;;;;;;;;;;4969332;28;20058;-89
2024/01/13 12:18:21;;;;;;;22.25;11.70;;;;;;;;;;4955770;28;20560;-89
2024/01/13 12:20:48;;;;;;;21.73;12.02;;;;;;;;;;4968104;28;20037;-89
2024/01/13 12:23:14;;;;;;;21.85;11.88;;;;;;;;;;4982369;28;20069;-89
2024/01/13 12:25:40;;;;;;;23.02;12.55;;;;;;;;;;4967981;28;20037;-89
2024/01/13 12:28:06;;;;;;;23.45;12.60;;;;;;;;;;4977169;28;20034;-89
2024/01/13 12:30:36;;;;;;;26.08;14.48;;;;;;;;;;4975523;28;20037;-89
2024/01/13 12:33:27;;;;;;;24.50;13.57;;;;;;;;;;4983251;28;20072;-89
2024/01/13 12:36:00;;;;;;;24.50;13.43;;;;;;;;;;4970986;28;20502;-89
2024/01/13 12:38:30;;;;;;;23.90;13.30;;;;;;;;;;4970305;28;20073;-88
2024/01/13 12:40:59;;;;;;;22.48;13.05;;;;;;;;;;4974458;28;20117;-89
2024/01/13 12:43:25;;;;;;;21.88;12.13;;;;;;;;;;4970943;28;20425;-89
2024/01/13 12:45:52;;;;;;;22.63;12.98;;;;;;;;;;4972847;28;20031;-89
2024/01/13 12:48:19;;;;;;;23.27;12.38;;;;;;;;;;4966413;28;20170;-89
2024/01/13 12:50:45;;;;;;;25.35;13.25;;;;;;;;;;4971482;28;20057;-89
2024/01/13 12:53:11;;;;;;;26.00;14.25;;;;;;;;;;4968712;28;20042;-89
2024/01/13 12:55:37;;;;;;;28.20;14.07;;;;;;;;;;4971642;28;20097;-90
2024/01/13 12:58:04;;;;;;;26.17;14.57;;;;;;;;;;4966562;28;20127;-88
2024/01/13 13:00:35;;;;;;;28.50;15.35;;;;;;;;;;4965747;28;20676;-90
2024/01/13 13:03:03;;;;;;;23.92;13.48;;;;;;;;;;4969582;28;20041;-89
2024/01/13 13:05:29;;;;;;;27.05;14.98;;;;;;;;;;4970227;28;20084;-89
2024/01/13 13:08:00;;;;;;;26.38;13.88;;;;;;;;;;4974704;28;20591;-89
2024/01/13 13:10:46;;;;;;;27.38;14.52;;;;;;;;;;4966548;28;20034;-89
2024/01/13 13:13:11;;;;;;;26.55;14.25;;;;;;;;;;4969485;28;20035;-90
2024/01/13 13:15:36;;;;;;;27.55;14.82;;;;;;;;;;4984467;28;20497;-88
2024/01/13 13:18:02;;;;;;;29.70;14.20;;;;;;;;;;4966693;28;20476;-89
2024/01/13 13:20:27;;;;;;;30.02;15.02;;;;;;;;;;4970398;28;20030;-90
2024/01/13 13:22:56;;;;;;;31.45;15.10;;;;;;;;;;4968512;28;20054;-89
2024/01/13 13:25:22;;;;;;;28.08;14.98;;;;;;;;;;4967941;28;20035;-89
2024/01/13 13:27:48;;;;;;;26.95;14.50;;;;;;;;;;4982130;28;20056;-89
2024/01/13 13:30:16;;;;;;;26.50;14.52;;;;;;;;;;4968630;28;20041;-89
2024/01/13 13:32:41;;;;;;;29.48;14.32;;;;;;;;;;4973516;28;20030;-89
2024/01/13 13:35:07;;;;;;;27.98;15.57;;;;;;;;;;4966473;28;20062;-89
2024/01/13 13:37:32;;;;;;;28.33;15.10;;;;;;;;;;4974283;28;20389;-90
2024/01/13 13:40:01;;;;;;;26.45;14.73;;;;;;;;;;4967679;28;20034;-89
2024/01/13 13:42:26;;;;;;;28.83;15.32;;;;;;;;;;4981361;28;20559;-88
2024/01/13 13:44:53;;;;;;;28.80;15.15;;;;;;;;;;4964378;28;20034;-89
2024/01/13 13:47:19;;;;;;;28.42;15.30;;;;;;;;;;4974503;28;20115;-89
2024/01/13 13:49:45;;;;;;;26.23;14.10;;;;;;;;;;4964896;28;20084;-88
2024/01/13 13:52:10;;;;;;;30.83;14.35;;;;;;;;;;4965530;28;20046;-89
2024/01/13 13:54:36;;;;;;;27.80;15.73;;;;;;;;;;4969921;28;20035;-89
2024/01/13 13:57:01;;;;;;;32.05;16.27;;;;;;;;;;4966442;28;20130;-88
2024/01/13 13:59:27;;;;;;;32.70;17.30;;;;;;;;;;4965399;28;20497;-89
2024/01/13 14:01:52;;;;;;;31.58;16.67;;;;;;;;;;4967641;28;20031;-89
2024/01/13 14:04:18;;;;;;;33.35;17.15;;;;;;;;;;4970326;28;20132;-89
2024/01/13 14:06:43;;;;;;;32.78;16.38;;;;;;;;;;4965600;28;20060;-89
2024/01/13 14:09:09;;;;;;;32.15;17.00;;;;;;;;;;4974139;28;20129;-89
2024/01/13 14:11:36;;;;;;;32.05;16.48;;;;;;;;;;4986094;28;20098;-89
2024/01/13 14:14:03;;;;;;;34.95;18.02;;;;;;;;;;4972834;28;20038;-91
2024/01/13 14:16:29;;;;;;;34.67;16.20;;;;;;;;;;4982632;28;20485;-89
2024/01/13 14:18:55;;;;;;;34.97;16.80;;;;;;;;;;4962630;28;20031;-88
2024/01/13 14:21:20;;;;;;;33.00;17.08;;;;;;;;;;4970241;28;20042;-88
2024/01/13 14:23:46;;;;;;;35.38;17.13;;;;;;;;;;4966444;28;20713;-89
2024/01/13 14:26:11;;;;;;;32.88;16.63;;;;;;;;;;4960003;28;20066;-89
2024/01/13 14:28:37;;;;;;;33.92;17.92;;;;;;;;;;4977687;28;20899;-89
2024/01/13 14:31:04;;;;;;;34.67;18.45;;;;;;;;;;4966825;28;20035;-89
2024/01/13 14:33:31;;;;;;;35.63;17.73;;;;;;;;;;4984545;28;20089;-90
2024/01/13 14:35:57;;;;;;;38.42;18.13;;;;;;;;;;4967664;28;20026;-89
2024/01/13 14:38:22;;;;;;;33.95;16.92;;;;;;;;;;4968297;28;20040;-89
2024/01/13 14:40:48;;;;;;;36.22;17.95;;;;;;;;;;4969536;28;20085;-90
2024/01/13 14:43:13;;;;;;;35.13;16.73;;;;;;;;;;4964815;28;20334;-89
2024/01/13 14:45:39;;;;;;;33.03;16.35;;;;;;;;;;4964961;28;20042;-89
2024/01/13 14:48:04;;;;;;;36.03;17.48;;;;;;;;;;4967587;28;20701;-89
2024/01/13 14:50:30;;;;;;;36.10;17.42;;;;;;;;;;4960562;28;20122;-87
2024/01/13 14:52:55;;;;;;;34.38;16.02;;;;;;;;;;4962587;28;20117;-87
2024/01/13 14:55:21;;;;;;;33.75;16.65;;;;;;;;;;4963352;28;20521;-86
2024/01/13 14:57:48;;;;;;;32.95;17.60;;;;;;;;;;4966791;28;20061;-87
2024/01/13 15:00:14;;;;;;;35.30;16.50;;;;;;;;;;4978732;28;20057;-88
2024/01/13 15:02:40;;;;;;;32.92;15.50;;;;;;;;;;4965964;28;20661;-88
2024/01/13 15:05:06;;;;;;;34.72;15.93;;;;;;;;;;4971289;28;20642;-89
2024/01/13 15:07:32;;;;;;;34.60;16.73;;;;;;;;;;4975953;28;20311;-87
2024/01/13 15:09:57;;;;;;;36.30;17.08;;;;;;;;;;4984458;28;20031;-86
2024/01/13 15:12:26;;;;;;;34.92;17.33;;;;;;;;;;4974998;28;20347;-87
2024/01/13 15:14:51;;;;;;;32.67;16.20;;;;;;;;;;4984910;28;20048;-88
2024/01/13 15:17:17;;;;;;;35.58;16.63;;;;;;;;;;4972745;28;20762;-87
2024/01/13 15:19:42;;;;;;;33.58;16.08;;;;;;;;;;4971796;28;20117;-88
2024/01/13 15:22:08;;;;;;;32.97;15.98;;;;;;;;;;4971665;28;20154;-88
2024/01/13 15:24:33;;;;;;;32.05;16.27;;;;;;;;;;4977057;28;20166;-88
2024/01/13 15:26:59;;;;;;;32.80;16.48;;;;;;;;;;4986220;28;20064;-87
2024/01/13 15:29:27;;;;;;;31.30;15.40;;;;;;;;;;4975002;28;20094;-88
2024/01/13 15:31:53;;;;;;;31.73;16.48;;;;;;;;;;4975319;28;20552;-87
2024/01/13 15:34:18;;;;;;;32.10;15.77;;;;;;;;;;4991688;28;20168;-87
2024/01/13 15:36:44;;;;;;;34.67;16.88;;;;;;;;;;4971539;28;20038;-87
2024/01/13 15:39:12;;;;;;;35.83;17.40;;;;;;;;;;4970550;28;20057;-86
2024/01/13 15:41:41;;;;;;;31.30;16.50;;;;;;;;;;4973017;28;20062;-86
2024/01/13 15:44:07;;;;;;;36.15;17.00;;;;;;;;;;4960035;28;20460;-88
2024/01/13 15:46:33;;;;;;;36.45;17.27;;;;;;;;;;4967473;28;20083;-86
2024/01/13 15:48:58;;;;;;;35.75;17.60;;;;;;;;;;4973470;28;20039;-87
2024/01/13 15:51:24;;;;;;;38.08;16.65;;;;;;;;;;4984504;28;20034;-88
2024/01/13 15:53:50;;;;;;;32.33;16.00;;;;;;;;;;4974411;28;20037;-88
2024/01/13 15:56:16;;;;;;;33.95;16.95;;;;;;;;;;4985947;28;20045;-88
2024/01/13 15:58:41;;;;;;;37.47;17.42;;;;;;;;;;4985745;28;20022;-89
2024/01/13 16:01:09;;;;;;;32.15;16.45;;;;;;;;;;4990590;28;20072;-89
2024/01/13 16:03:53;;;;;;;38.60;17.00;;;;;;;;;;4991934;28;20651;-89
2024/01/13 16:06:18;;;;;;;31.05;15.68;;;;;;;;;;4965822;28;20028;-89
2024/01/13 16:08:43;;;;;;;34.13;16.40;;;;;;;;;;4967997;28;20031;-89
2024/01/13 16:11:09;;;;;;;36.75;17.10;;;;;;;;;;4970481;28;20437;-88
2024/01/13 16:13:34;;;;;;;32.63;16.23;;;;;;;;;;4967784;28;20036;-89
2024/01/13 16:16:00;;;;;;;33.65;16.00;;;;;;;;;;4974579;28;20030;-90
2024/01/13 16:18:26;;;;;;;34.53;15.48;;;;;;;;;;4972830;28;20511;-87
2024/01/13 16:20:51;;;;;;;33.10;15.95;;;;;;;;;;4971862;28;20026;-89
2024/01/13 16:23:17;;;;;;;34.72;16.45;;;;;;;;;;4989949;28;20412;-89
2024/01/13 16:25:42;;;;;;;35.13;15.90;;;;;;;;;;4970014;28;20526;-89
2024/01/13 16:28:08;;;;;;;37.05;17.83;;;;;;;;;;4972674;28;20038;-89
2024/01/13 16:30:34;;;;;;;37.50;17.17;;;;;;;;;;4972647;28;20145;-89
2024/01/13 16:32:59;;;;;;;35.05;15.60;;;;;;;;;;4985845;28;20162;-88
2024/01/13 16:35:25;;;;;;;34.10;15.88;;;;;;;;;;4971667;28;20030;-89
2024/01/13 16:37:50;;;;;;;35.33;16.15;;;;;;;;;;4972206;28;20022;-89
2024/01/13 16:40:19;;;;;;;33.40;16.08;;;;;;;;;;4964670;28;20141;-88
2024/01/13 16:42:45;;;;;;;32.85;15.52;;;;;;;;;;4970657;28;20030;-90
2024/01/13 16:45:10;;;;;;;33.83;16.08;;;;;;;;;;4969475;28;20030;-89
2024/01/13 16:47:35;;;;;;;30.23;14.95;;;;;;;;;;4973838;28;20766;-90
2024/01/13 16:50:02;;;;;;;31.73;16.00;;;;;;;;;;4969883;28;20259;-90
2024/01/13 16:52:27;;;;;;;34.33;16.08;;;;;;;;;;4963000;28;20035;-89
2024/01/13 16:54:52;;;;;;;33.63;16.00;;;;;;;;;;4974109;28;20041;-89
2024/01/13 16:57:18;;;;;;;34.53;15.20;;;;;;;;;;4976416;28;20034;-89
2024/01/13 16:59:44;;;;;;;31.90;14.65;;;;;;;;;;4971545;28;20398;-89
2024/01/13 17:02:10;;;;;;;34.53;15.73;;;;;;;;;;4966594;28;20034;-89
2024/01/13 17:04:36;;;;;;;31.42;14.63;;;;;;;;;;4985485;28;20062;-90
2024/01/13 17:07:02;;;;;;;33.45;15.43;;;;;;;;;;4967896;28;20062;-89
2024/01/13 17:09:29;;;;;;;34.92;15.75;;;;;;;;;;4965707;28;20038;-89
2024/01/13 17:11:55;;;;;;;32.35;15.18;;;;;;;;;;4989879;28;20030;-89
2024/01/13 17:14:21;;;;;;;31.60;14.63;;;;;;;;;;4995701;28;20068;-89
2024/01/13 17:16:46;;;;;;;32.25;15.50;;;;;;;;;;4976028;28;20026;-88
2024/01/13 17:19:13;;;;;;;30.15;14.23;;;;;;;;;;4974939;28;20022;-90
2024/01/13 17:21:39;;;;;;;30.83;14.18;;;;;;;;;;4975344;28;20034;-90
2024/01/13 17:24:05;;;;;;;30.90;14.70;;;;;;;;;;4975271;28;20034;-88
2024/01/13 17:26:30;;;;;;;29.35;14.15;;;;;;;;;;4971500;28;20036;-88
2024/01/13 17:28:56;;;;;;;26.60;13.75;;;;;;;;;;4974761;28;20488;-89
2024/01/13 17:31:21;;;;;;;28.60;13.52;;;;;;;;;;4972869;28;20030;-88
2024/01/13 17:33:47;;;;;;;29.63;14.02;;;;;;;;;;4965517;28;20118;-90
2024/01/13 17:36:12;;;;;;;28.42;13.60;;;;;;;;;;4968516;28;20101;-88
2024/01/13 17:38:38;;;;;;;29.98;13.60;;;;;;;;;;4974141;28;20242;-89
2024/01/13 17:41:04;;;;;;;30.90;14.60;;;;;;;;;;4972812;28;20043;-88
2024/01/13 17:43:29;;;;;;;26.02;13.40;;;;;;;;;;4978600;28;20045;-89
2024/01/13 17:45:57;;;;;;;29.08;13.85;;;;;;;;;;4971819;28;20034;-87
2024/01/13 17:48:23;;;;;;;30.50;13.80;;;;;;;;;;4986925;28;20168;-89
2024/01/13 17:50:48;;;;;;;28.50;13.13;;;;;;;;;;4971500;28;20114;-88
2024/01/13 17:53:14;;;;;;;25.38;13.13;;;;;;;;;;4978297;28;20747;-87
2024/01/13 17:55:40;;;;;;;28.77;14.35;;;;;;;;;;4974916;28;20069;-88
2024/01/13 17:58:08;;;;;;;26.30;13.52;;;;;;;;;;4971778;28;20616;-88
2024/01/13 18:00:33;;;;;;;32.75;14.23;;;;;;;;;;4970811;28;20737;-88
2024/01/13 18:02:59;;;;;;;27.85;13.13;;;;;;;;;;4971819;28;20050;-89
2024/01/13 18:05:24;;;;;;;29.58;13.45;;;;;;;;;;4977477;28;20023;-89
2024/01/13 18:07:50;;;;;;;31.65;14.20;;;;;;;;;;4984742;28;20130;-88
2024/01/13 18:10:17;;;;;;;31.98;14.52;;;;;;;;;;4970676;28;20045;-88
2024/01/13 18:12:42;;;;;;;30.08;14.13;;;;;;;;;;4970513;28;20033;-89
2024/01/13 18:15:09;;;;;;;28.92;13.57;;;;;;;;;;4970107;28;20129;-89
2024/01/13 18:17:35;;;;;;;28.50;13.93;;;;;;;;;;4988612;28;20022;-89
2024/01/13 18:20:01;;;;;;;28.42;13.38;;;;;;;;;;4989181;28;20037;-89
2024/01/13 18:22:26;;;;;;;30.42;14.90;;;;;;;;;;4965865;28;20039;-87
2024/01/13 18:24:52;;;;;;;30.40;15.00;;;;;;;;;;4969846;28;20026;-88
2024/01/13 18:27:18;;;;;;;26.75;13.15;;;;;;;;;;4968274;28;20066;-88
2024/01/13 18:29:43;;;;;;;26.23;12.35;;;;;;;;;;4995201;28;20393;-89